createdAt,value
2018-04-19T00:02:10.241Z,19.26
2018-04-19T00:04:38.921Z,19.18
2018-04-19T00:07:07.284Z,19.22
2018-04-19T00:09:35.642Z,19.02
2018-04-19T00:12:03.975Z,18.98
2018-04-19T00:14:32.341Z,18.95
2018-04-19T00:17:01.029Z,18.93
2018-04-19T00:19:29.352Z,19.01
2018-04-19T00:21:57.796Z,18.99
2018-04-19T00:24:26.142Z,18.94
2018-04-19T00:26:54.484Z,18.80
2018-04-19T00:29:22.855Z,18.71
2018-04-19T00:31:51.973Z,18.83
2018-04-19T00:34:20.302Z,18.77
2018-04-19T00:36:48.847Z,18.81
2018-04-19T00:39:17.201Z,18.65
2018-04-19T00:41:45.531Z,18.60
2018-04-19T00:44:13.935Z,18.56
2018-04-19T00:46:43.025Z,18.58
2018-04-19T00:49:11.332Z,18.32
2018-04-19T00:51:40.461Z,18.07
2018-04-19T00:54:08.817Z,18.20
2018-04-19T00:56:37.161Z,18.24
2018-04-19T00:59:05.620Z,18.03
2018-04-19T01:01:33.970Z,18.04
2018-04-19T01:04:02.276Z,17.93
2018-04-19T01:06:30.806Z,17.80
2018-04-19T01:08:59.153Z,17.68
2018-04-19T01:11:27.500Z,17.73
2018-04-19T01:13:55.872Z,17.71
2018-04-19T01:16:24.982Z,17.68
2018-04-19T01:18:53.290Z,17.53
2018-04-19T01:21:21.650Z,17.62
2018-04-19T01:23:49.993Z,17.59
2018-04-19T01:26:18.332Z,17.57
2018-04-19T01:28:47.659Z,17.39
2018-04-19T01:31:16.008Z,17.42
2018-04-19T01:33:44.355Z,17.16
2018-04-19T01:36:25.493Z,17.25
2018-04-19T01:38:53.873Z,17.13
2018-04-19T01:41:22.219Z,17.10
2018-04-19T01:43:50.696Z,17.17
2018-04-19T01:46:19.056Z,17.09
2018-04-19T01:48:47.391Z,17.01
2018-04-19T01:51:16.495Z,17.05
2018-04-19T01:53:44.812Z,17.15
2018-04-19T01:56:13.300Z,16.88
2018-04-19T01:58:41.691Z,16.74
2018-04-19T02:01:10.040Z,16.61
2018-04-19T02:03:38.384Z,16.61
2018-04-19T02:06:06.822Z,16.58
2018-04-19T02:08:35.199Z,16.55
2018-04-19T02:11:03.557Z,16.54
2018-04-19T02:13:31.930Z,16.54
2018-04-19T02:16:00.261Z,16.47
2018-04-19T02:18:28.623Z,16.57
2018-04-19T02:20:56.995Z,16.57
2018-04-19T02:23:25.349Z,16.49
2018-04-19T02:25:53.684Z,16.44
2018-04-19T02:28:23.026Z,16.52
2018-04-19T02:30:51.377Z,16.42
2018-04-19T02:33:20.497Z,16.46
2018-04-19T02:35:48.958Z,16.50
2018-04-19T02:38:17.234Z,16.54
2018-04-19T02:40:45.585Z,16.43
2018-04-19T02:43:13.940Z,16.40
2018-04-19T02:45:42.295Z,16.35
2018-04-19T02:48:10.669Z,16.33
2018-04-19T02:50:39.548Z,16.15
2018-04-19T02:53:07.895Z,16.08
2018-04-19T02:55:36.233Z,16.17
2018-04-19T02:58:04.608Z,16.09
2018-04-19T03:00:32.953Z,16.03
2018-04-19T03:03:02.050Z,15.96
2018-04-19T03:05:31.186Z,15.99
2018-04-19T03:07:59.543Z,16.03
2018-04-19T03:10:27.934Z,16.04
2018-04-19T03:12:56.596Z,15.97
2018-04-19T03:15:25.706Z,16.04
2018-04-19T03:17:54.092Z,16.08
2018-04-19T03:20:22.461Z,16.11
2018-04-19T03:22:50.785Z,16.01
2018-04-19T03:25:19.155Z,16.06
2018-04-19T03:27:47.514Z,16.10
2018-04-19T03:30:15.819Z,16.07
2018-04-19T03:32:44.155Z,16.03
2018-04-19T03:35:12.797Z,15.75
2018-04-19T03:37:41.133Z,15.94
2018-04-19T03:40:09.473Z,15.89
2018-04-19T03:42:37.866Z,15.88
2018-04-19T03:45:06.211Z,15.95
2018-04-19T03:47:34.560Z,15.95
2018-04-19T03:50:02.912Z,15.85
2018-04-19T03:52:31.350Z,15.82
2018-04-19T03:54:59.663Z,15.67
2018-04-19T03:57:29.100Z,15.85
2018-04-19T03:59:57.430Z,15.68
2018-04-19T04:02:25.752Z,15.54
2018-04-19T04:04:54.170Z,15.61
2018-04-19T04:07:22.488Z,15.55
2018-04-19T04:09:50.812Z,15.43
2018-04-19T04:12:19.190Z,15.50
2018-04-19T04:14:47.514Z,15.46
2018-04-19T04:17:33.641Z,15.51
2018-04-19T04:20:19.952Z,15.58
2018-04-19T04:23:06.245Z,15.37
2018-04-19T04:25:34.584Z,15.33
2018-04-19T04:28:03.692Z,15.41
2018-04-19T04:30:32.045Z,15.48
2018-04-19T04:33:00.364Z,15.48
2018-04-19T04:35:28.671Z,15.45
2018-04-19T04:37:57.234Z,15.19
2018-04-19T04:40:25.579Z,15.33
2018-04-19T04:42:58.204Z,15.23
2018-04-19T04:45:26.840Z,15.15
2018-04-19T04:47:55.242Z,15.28
2018-04-19T04:50:23.577Z,15.43
2018-04-19T04:52:51.962Z,15.46
2018-04-19T04:55:20.333Z,15.28
2018-04-19T04:57:50.212Z,15.36
2018-04-19T05:00:19.073Z,15.36
2018-04-19T05:02:47.519Z,15.62
2018-04-19T05:05:15.876Z,15.74
2018-04-19T05:07:44.277Z,15.87
2018-04-19T05:10:12.594Z,15.96
2018-04-19T05:12:41.721Z,16.04
2018-04-19T05:15:10.162Z,16.19
2018-04-19T05:17:38.549Z,16.21
2018-04-19T05:20:07.871Z,16.20
2018-04-19T05:22:36.746Z,16.28
2018-04-19T05:25:05.124Z,16.45
2018-04-19T05:27:34.255Z,16.69
2018-04-19T05:30:02.637Z,16.62
2018-04-19T05:32:31.007Z,16.68
2018-04-19T05:34:59.370Z,16.87
2018-04-19T05:37:27.766Z,17.01
2018-04-19T05:39:56.120Z,17.02
2018-04-19T05:42:24.491Z,17.02
2018-04-19T05:44:53.924Z,16.89
2018-04-19T05:47:23.022Z,16.94
2018-04-19T05:49:51.369Z,17.13
2018-04-19T05:52:20.495Z,17.23
2018-04-19T05:54:48.830Z,17.36
2018-04-19T05:57:17.143Z,17.51
2018-04-19T05:59:45.504Z,17.73
2018-04-19T06:02:14.599Z,17.96
2018-04-19T06:04:43.709Z,18.22
2018-04-19T06:07:13.041Z,18.37
2018-04-19T06:09:41.520Z,18.41
2018-04-19T06:12:09.873Z,18.67
2018-04-19T06:14:38.281Z,18.78
2018-04-19T06:17:06.643Z,19.01
2018-04-19T06:19:34.981Z,18.82
2018-04-19T06:22:03.462Z,18.74
2018-04-19T06:24:32.594Z,18.95
2018-04-19T06:27:00.924Z,19.23
2018-04-19T06:29:29.498Z,19.35
2018-04-19T06:31:57.839Z,19.44
2018-04-19T06:34:26.176Z,19.66
2018-04-19T06:36:54.571Z,19.80
2018-04-19T06:39:23.729Z,20.03
2018-04-19T06:41:52.047Z,20.25
2018-04-19T06:44:20.405Z,20.48
2018-04-19T06:46:48.773Z,20.61
2018-04-19T06:49:17.095Z,20.62
2018-04-19T06:51:45.683Z,20.66
2018-04-19T06:54:14.023Z,20.72
2018-04-19T06:56:42.387Z,20.95
2018-04-19T06:59:10.809Z,21.21
2018-04-19T07:01:39.120Z,21.40
2018-04-19T07:04:07.456Z,21.43
2018-04-19T07:06:35.850Z,21.67
2018-04-19T07:09:04.196Z,21.59
2018-04-19T07:11:32.546Z,21.88
2018-04-19T07:14:01.308Z,22.06
2018-04-19T07:16:29.625Z,22.28
2018-04-19T07:18:57.958Z,22.32
2018-04-19T07:21:27.090Z,22.68
2018-04-19T07:23:55.415Z,22.81
2018-04-19T07:26:23.742Z,23.01
2018-04-19T07:28:52.122Z,23.23
2018-04-19T07:31:20.485Z,23.58
2018-04-19T07:33:48.843Z,23.45
2018-04-19T07:36:18.135Z,23.59
2018-04-19T07:38:47.239Z,23.70
2018-04-19T07:41:16.446Z,23.94
2018-04-19T07:43:45.584Z,23.90
2018-04-19T07:46:13.915Z,24.07
2018-04-19T07:48:43.033Z,24.33
2018-04-19T07:51:11.381Z,24.36
2018-04-19T07:53:39.707Z,24.50
2018-04-19T07:56:08.064Z,24.38
2018-04-19T07:58:36.859Z,24.56
2018-04-19T08:01:05.206Z,24.43
2018-04-19T08:03:34.314Z,24.29
2018-04-19T08:06:03.441Z,24.52
2018-04-19T08:08:31.746Z,24.42
2018-04-19T08:11:00.086Z,24.25
2018-04-19T08:13:28.469Z,24.24
2018-04-19T08:15:56.826Z,24.61
2018-04-19T08:18:25.222Z,24.80
2018-04-19T08:20:54.186Z,25.10
2018-04-19T08:23:22.543Z,25.37
2018-04-19T08:25:50.922Z,25.62
2018-04-19T08:28:19.280Z,25.65
2018-04-19T08:30:47.644Z,25.20
2018-04-19T08:33:15.956Z,25.69
2018-04-19T08:35:44.396Z,26.20
2018-04-19T08:38:12.724Z,26.17
2018-04-19T08:40:41.077Z,26.09
2018-04-19T08:43:09.938Z,26.64
2018-04-19T08:45:38.478Z,27.08
2018-04-19T08:48:07.649Z,26.79
2018-04-19T08:50:36.073Z,26.78
2018-04-19T08:53:05.218Z,26.76
2018-04-19T08:55:33.601Z,27.59
2018-04-19T08:58:01.952Z,27.82
2018-04-19T09:00:31.039Z,27.97
2018-04-19T09:03:00.145Z,28.07
2018-04-19T09:05:29.344Z,28.33
2018-04-19T09:07:57.694Z,28.71
2018-04-19T09:10:26.045Z,28.79
2018-04-19T09:12:54.383Z,28.42
2018-04-19T09:15:22.726Z,28.85
2018-04-19T09:17:51.061Z,29.46
2018-04-19T09:20:19.464Z,30.15
2018-04-19T09:22:47.813Z,29.93
2018-04-19T09:25:16.167Z,29.66
2018-04-19T09:27:44.869Z,29.80
2018-04-19T09:30:13.241Z,29.91
2018-04-19T09:32:42.329Z,30.50
2018-04-19T09:35:11.440Z,30.85
2018-04-19T09:37:39.768Z,30.58
2018-04-19T09:40:08.120Z,30.71
2018-04-19T09:42:36.528Z,31.07
2018-04-19T09:45:04.882Z,31.47
2018-04-19T09:47:33.228Z,30.69
2018-04-19T09:50:02.506Z,30.80
2018-04-19T09:52:31.607Z,31.01
2018-04-19T09:55:00.696Z,31.59
2018-04-19T09:57:29.057Z,31.62
2018-04-19T09:59:57.413Z,31.29
2018-04-19T10:02:29.620Z,31.06
2018-04-19T10:05:02.772Z,31.20
2018-04-19T10:07:31.217Z,31.56
2018-04-19T10:10:00.362Z,31.43
2018-04-19T10:12:28.715Z,31.35
2018-04-19T10:14:57.092Z,31.67
2018-04-19T10:17:25.439Z,31.96
2018-04-19T10:19:54.536Z,32.24
2018-04-19T10:22:22.921Z,32.40
2018-04-19T10:24:51.493Z,32.87
2018-04-19T10:27:19.830Z,32.65
2018-04-19T10:29:48.275Z,32.31
2018-04-19T10:32:17.387Z,32.59
2018-04-19T10:34:45.719Z,32.43
2018-04-19T10:37:14.069Z,32.14
2018-04-19T10:39:42.391Z,31.53
2018-04-19T10:42:10.726Z,32.10
2018-04-19T10:44:39.123Z,32.79
2018-04-19T10:47:07.507Z,32.56
2018-04-19T10:49:35.864Z,32.84
2018-04-19T10:52:04.506Z,33.01
2018-04-19T10:54:33.607Z,33.17
2018-04-19T10:57:01.982Z,32.76
2018-04-19T10:59:31.105Z,31.60
2018-04-19T11:01:59.481Z,32.28
2018-04-19T11:04:27.843Z,32.48
2018-04-19T11:06:56.246Z,32.66
2018-04-19T11:09:24.591Z,33.25
2018-04-19T11:11:53.692Z,33.15
2018-04-19T11:14:23.295Z,33.70
2018-04-19T11:16:51.666Z,33.97
2018-04-19T11:19:20.798Z,33.78
2018-04-19T11:21:49.176Z,33.91
2018-04-19T11:24:18.272Z,34.29
2018-04-19T11:26:46.687Z,33.21
2018-04-19T11:29:15.029Z,33.43
2018-04-19T11:31:43.370Z,32.98
2018-04-19T11:34:11.725Z,32.80
2018-04-19T11:36:40.492Z,33.33
2018-04-19T11:39:08.808Z,33.33
2018-04-19T11:41:37.148Z,33.22
2018-04-19T11:44:05.556Z,33.54
2018-04-19T11:46:33.901Z,33.23
2018-04-19T11:49:02.232Z,32.91
2018-04-19T11:51:30.580Z,32.16
2018-04-19T11:53:58.906Z,32.26
2018-04-19T11:56:28.043Z,32.21
2018-04-19T11:58:56.525Z,32.11
2018-04-19T12:01:24.880Z,32.79
2018-04-19T12:03:53.184Z,32.68
2018-04-19T12:06:21.546Z,32.75
2018-04-19T12:08:49.869Z,33.04
2018-04-19T12:11:18.220Z,32.69
2018-04-19T12:13:46.632Z,32.13
2018-04-19T12:16:14.968Z,32.08
2018-04-19T12:18:43.322Z,32.80
2018-04-19T12:21:12.551Z,33.43
2018-04-19T12:23:40.904Z,33.27
2018-04-19T12:26:10.025Z,32.94
2018-04-19T12:28:38.425Z,32.90
2018-04-19T12:31:06.740Z,32.93
2018-04-19T12:33:35.081Z,32.96
2018-04-19T12:36:03.503Z,32.51
2018-04-19T12:38:32.592Z,32.06
2018-04-19T12:41:00.920Z,32.23
2018-04-19T12:43:29.707Z,32.36
2018-04-19T12:45:58.013Z,32.78
2018-04-19T12:48:27.122Z,32.61
2018-04-19T12:50:55.478Z,32.74
2018-04-19T12:53:23.813Z,32.81
2018-04-19T12:55:52.177Z,33.29
2018-04-19T12:58:21.313Z,33.78
2018-04-19T13:00:49.707Z,33.81
2018-04-19T13:03:18.012Z,34.16
2018-04-19T13:05:46.535Z,33.47
2018-04-19T13:08:15.638Z,33.35
2018-04-19T13:10:43.986Z,33.44
2018-04-19T13:13:12.349Z,32.82
2018-04-19T13:15:40.698Z,32.48
2018-04-19T13:18:09.089Z,32.33
2018-04-19T13:20:37.457Z,32.91
2018-04-19T13:23:05.806Z,32.59
2018-04-19T13:25:34.144Z,32.06
2018-04-19T13:28:02.984Z,32.41
2018-04-19T13:30:31.665Z,32.72
2018-04-19T13:33:00.021Z,32.65
2018-04-19T13:35:29.187Z,33.17
2018-04-19T13:37:57.524Z,33.06
2018-04-19T13:40:26.633Z,33.31
2018-04-19T13:42:54.997Z,32.50
2018-04-19T13:45:23.339Z,32.25
2018-04-19T13:47:51.659Z,31.84
2018-04-19T13:50:20.538Z,31.52
2018-04-19T13:52:49.690Z,31.67
2018-04-19T13:55:18.054Z,31.74
2018-04-19T13:57:46.439Z,31.96
2018-04-19T14:00:14.778Z,32.13
2018-04-19T14:02:43.878Z,31.46
2018-04-19T14:05:13.009Z,31.64
2018-04-19T14:07:41.373Z,31.72
2018-04-19T14:10:09.681Z,31.58
2018-04-19T14:12:38.554Z,31.81
2018-04-19T14:15:06.928Z,31.72
2018-04-19T14:17:35.330Z,31.61
2018-04-19T14:20:03.717Z,32.06
2018-04-19T14:22:32.080Z,32.02
2018-04-19T14:25:00.439Z,31.79
2018-04-19T14:27:28.796Z,32.03
2018-04-19T14:29:57.918Z,31.18
2018-04-19T14:32:26.568Z,31.56
2018-04-19T14:34:55.213Z,31.55
2018-04-19T14:37:23.557Z,31.44
2018-04-19T14:39:51.899Z,31.52
2018-04-19T14:42:20.312Z,31.33
2018-04-19T14:44:48.663Z,31.49
2018-04-19T14:47:17.757Z,31.15
2018-04-19T14:49:46.153Z,31.24
2018-04-19T14:52:14.466Z,31.15
2018-04-19T14:54:42.755Z,31.38
2018-04-19T14:57:11.194Z,31.40
2018-04-19T14:59:39.533Z,31.53
2018-04-19T15:02:07.884Z,30.83
2018-04-19T15:04:36.285Z,30.88
2018-04-19T15:07:04.617Z,30.63
2018-04-19T15:09:32.965Z,30.27
2018-04-19T15:12:01.343Z,30.21
2018-04-19T15:14:29.693Z,29.93
2018-04-19T15:16:58.022Z,30.36
2018-04-19T15:19:26.921Z,30.32
2018-04-19T15:21:55.249Z,30.26
2018-04-19T15:24:23.582Z,30.08
2018-04-19T15:26:51.990Z,29.78
2018-04-19T15:29:20.305Z,29.85
2018-04-19T15:31:48.672Z,29.94
2018-04-19T15:34:17.076Z,29.86
2018-04-19T15:36:46.166Z,30.26
2018-04-19T15:39:14.514Z,30.42
2018-04-19T15:41:43.291Z,30.29
2018-04-19T15:44:12.362Z,30.15
2018-04-19T15:46:40.723Z,30.29
2018-04-19T15:49:09.867Z,30.09
2018-04-19T15:51:38.189Z,30.12
2018-04-19T15:54:07.285Z,30.20
2018-04-19T15:56:35.711Z,29.74
2018-04-19T15:59:04.072Z,29.68
2018-04-19T16:01:32.443Z,29.92
2018-04-19T16:04:01.691Z,30.05
2018-04-19T16:06:30.059Z,29.84
2018-04-19T16:08:58.400Z,29.55
2018-04-19T16:11:26.902Z,29.41
2018-04-19T16:13:55.227Z,29.39
2018-04-19T16:16:23.569Z,29.48
2018-04-19T16:18:52.143Z,29.25
2018-04-19T16:21:20.495Z,29.06
2018-04-19T16:23:49.630Z,28.97
2018-04-19T16:26:18.240Z,28.90
2018-04-19T16:28:48.618Z,28.88
2018-04-19T16:31:14.937Z,28.97
2018-04-19T16:33:43.305Z,28.83
2018-04-19T16:36:11.641Z,28.73
2018-04-19T16:38:39.993Z,28.47
2018-04-19T16:41:08.376Z,28.28
2018-04-19T16:43:36.711Z,28.25
2018-04-19T16:46:05.024Z,28.15
2018-04-19T16:48:33.487Z,27.93
2018-04-19T16:51:01.830Z,28.04
2018-04-19T16:53:30.223Z,27.95
2018-04-19T16:55:58.607Z,28.11
2018-04-19T16:58:27.719Z,27.96
2018-04-19T17:00:56.810Z,27.96
2018-04-19T17:03:25.178Z,27.85
2018-04-19T17:05:53.621Z,27.71
2018-04-19T17:08:21.937Z,27.70
2018-04-19T17:10:50.470Z,27.58
2018-04-19T17:13:18.808Z,27.38
2018-04-19T17:15:47.921Z,27.43
2018-04-19T17:18:17.038Z,27.51
2018-04-19T17:20:45.388Z,27.56
2018-04-19T17:23:14.511Z,27.43
2018-04-19T17:25:42.953Z,27.35
2018-04-19T17:28:11.316Z,27.35
2018-04-19T17:30:39.686Z,27.41
2018-04-19T17:33:08.249Z,27.37
2018-04-19T17:35:37.021Z,27.32
2018-04-19T17:38:05.396Z,27.21
2018-04-19T17:40:33.773Z,27.25
2018-04-19T17:43:02.932Z,27.22
2018-04-19T17:45:31.302Z,27.10
2018-04-19T17:47:59.749Z,27.11
2018-04-19T17:50:28.840Z,27.15
2018-04-19T17:52:57.177Z,26.65
2018-04-19T17:55:26.791Z,26.55
2018-04-19T17:57:55.152Z,26.52
2018-04-19T18:00:23.510Z,26.45
2018-04-19T18:02:51.953Z,26.42
2018-04-19T18:05:21.094Z,26.49
2018-04-19T18:07:49.428Z,26.44
2018-04-19T18:10:17.820Z,26.44
2018-04-19T18:12:46.226Z,26.47
2018-04-19T18:15:14.600Z,26.36
2018-04-19T18:17:43.075Z,26.28
2018-04-19T18:20:11.479Z,26.11
2018-04-19T18:22:39.813Z,26.02
2018-04-19T18:25:08.266Z,25.95
2018-04-19T18:27:36.576Z,26.06
2018-04-19T18:30:08.923Z,25.86
2018-04-19T18:32:37.385Z,25.90
2018-04-19T18:35:05.803Z,25.74
2018-04-19T18:37:34.467Z,25.60
2018-04-19T18:40:02.946Z,25.55
2018-04-19T18:42:31.300Z,25.56
2018-04-19T18:44:59.634Z,25.37
2018-04-19T18:47:27.976Z,25.26
2018-04-19T18:49:56.334Z,25.24
2018-04-19T18:52:25.443Z,25.10
2018-04-19T18:54:53.862Z,25.13
2018-04-19T18:57:22.283Z,25.24
2018-04-19T18:59:50.665Z,25.02
2018-04-19T19:02:19.141Z,24.98
2018-04-19T19:04:47.505Z,25.11
2018-04-19T19:07:15.843Z,25.09
2018-04-19T19:09:44.268Z,25.17
2018-04-19T19:12:12.620Z,24.99
2018-04-19T19:14:40.975Z,24.88
2018-04-19T19:17:26.972Z,24.81
2018-04-19T19:20:14.071Z,24.64
2018-04-19T19:22:42.454Z,24.59
2018-04-19T19:25:10.779Z,24.51
2018-04-19T19:27:40.261Z,24.40
2018-04-19T19:30:09.579Z,24.53
2018-04-19T19:32:38.533Z,24.25
2018-04-19T19:35:08.307Z,24.21
2018-04-19T19:37:38.016Z,24.17
2018-04-19T19:40:07.210Z,24.13
2018-04-19T19:42:35.604Z,24.10
2018-04-19T19:45:04.250Z,24.05
2018-04-19T19:47:32.635Z,24.04
2018-04-19T19:50:01.720Z,24.02
2018-04-19T19:52:30.837Z,24.11
2018-04-19T19:55:00.335Z,23.81
2018-04-19T19:57:28.736Z,23.75
2018-04-19T19:59:57.288Z,23.64
2018-04-19T20:02:26.453Z,23.67
2018-04-19T20:04:54.832Z,23.47
2018-04-19T20:07:23.221Z,23.45
2018-04-19T20:09:51.628Z,23.40
2018-04-19T20:12:20.768Z,23.32
2018-04-19T20:14:49.196Z,23.37
2018-04-19T20:17:17.513Z,23.30
2018-04-19T20:19:45.889Z,23.14
2018-04-19T20:22:14.775Z,23.00
2018-04-19T20:24:43.885Z,23.00
2018-04-19T20:27:12.296Z,22.92
2018-04-19T20:29:40.663Z,22.93
2018-04-19T20:32:09.020Z,22.84
2018-04-19T20:34:37.417Z,22.86
2018-04-19T20:37:05.759Z,22.82
2018-04-19T20:39:34.886Z,22.76
2018-04-19T20:42:03.263Z,22.73
2018-04-19T20:44:31.908Z,22.46
2018-04-19T20:47:00.278Z,22.33
2018-04-19T20:49:29.440Z,22.13
2018-04-19T20:51:57.838Z,22.27
2018-04-19T20:54:26.193Z,22.23
2018-04-19T20:56:54.532Z,22.33
2018-04-19T20:59:22.896Z,22.21
2018-04-19T21:01:51.255Z,22.19
2018-04-19T21:04:19.611Z,22.18
2018-04-19T21:06:48.496Z,22.09
2018-04-19T21:09:16.801Z,22.18
2018-04-19T21:11:45.149Z,22.34
2018-04-19T21:14:13.567Z,22.14
2018-04-19T21:16:41.934Z,22.16
2018-04-19T21:19:10.291Z,22.16
2018-04-19T21:21:39.419Z,22.13
2018-04-19T21:24:08.514Z,22.18
2018-04-19T21:26:36.842Z,22.22
2018-04-19T21:29:05.626Z,22.02
2018-04-19T21:31:34.734Z,22.00
2018-04-19T21:34:03.070Z,21.99
2018-04-19T21:36:31.457Z,22.12
2018-04-19T21:39:00.284Z,22.04
2018-04-19T21:41:28.672Z,21.88
2018-04-19T21:43:57.854Z,22.04
2018-04-19T21:46:26.235Z,22.09
2018-04-19T21:48:54.590Z,22.13
2018-04-19T21:51:23.827Z,22.13
2018-04-19T21:53:52.186Z,21.86
2018-04-19T21:56:21.339Z,21.82
2018-04-19T21:58:49.771Z,21.95
2018-04-19T22:01:18.120Z,21.94
2018-04-19T22:03:47.234Z,21.85
2018-04-19T22:06:16.346Z,21.80
2018-04-19T22:08:44.736Z,21.71
2018-04-19T22:11:13.073Z,21.35
2018-04-19T22:13:41.646Z,21.46
2018-04-19T22:16:10.030Z,21.58
2018-04-19T22:18:38.335Z,21.62
2018-04-19T22:21:06.722Z,21.38
2018-04-19T22:23:35.823Z,21.43
2018-04-19T22:26:04.185Z,21.32
2018-04-19T22:28:33.336Z,21.24
2018-04-19T22:31:01.680Z,20.95
2018-04-19T22:33:30.023Z,21.05
2018-04-19T22:35:58.436Z,21.03
2018-04-19T22:38:26.796Z,20.92
2018-04-19T22:40:55.584Z,20.72
2018-04-19T22:43:24.709Z,20.74
2018-04-19T22:45:53.055Z,20.63
2018-04-19T22:48:21.386Z,20.50
2018-04-19T22:50:49.753Z,20.54
2018-04-19T22:53:18.098Z,20.43
2018-04-19T22:55:46.452Z,20.30
2018-04-19T22:58:14.880Z,20.17
2018-04-19T23:00:43.212Z,20.18
2018-04-19T23:03:12.325Z,20.15
2018-04-19T23:05:40.703Z,20.13
2018-04-19T23:08:09.017Z,20.02
2018-04-19T23:10:37.337Z,20.02
2018-04-19T23:13:05.666Z,19.92
2018-04-19T23:15:34.734Z,19.90
2018-04-19T23:18:03.824Z,19.77
2018-04-19T23:20:33.139Z,19.81
2018-04-19T23:23:02.252Z,19.71
2018-04-19T23:25:30.695Z,19.57
2018-04-19T23:27:59.120Z,19.64
2018-04-19T23:30:27.401Z,19.65
2018-04-19T23:32:55.715Z,19.62
2018-04-19T23:35:24.061Z,19.62
2018-04-19T23:37:52.363Z,19.66
2018-04-19T23:40:20.769Z,19.49
2018-04-19T23:42:49.544Z,19.60
2018-04-19T23:45:17.882Z,19.54
2018-04-19T23:47:46.975Z,19.65
2018-04-19T23:50:15.330Z,19.43
2018-04-19T23:52:44.405Z,19.61
2018-04-19T23:55:12.716Z,19.71
2018-04-19T23:57:41.874Z,19.72
